KAIA/AIA METAR and TAF weather

Enter ICAO airport designator
Station Type Date Time Source
KAIA METAR 2020/08/10 18:53 UTC NOAA

KAIA 101853Z AUTO 10009G19KT 080V140 10SM CLR 26/09 A3011 RMK AO2 SLP156 T02610094


Station Type Date Time Source
KAIA Decoded METAR 2020/08/10 18:53 UTC NOAA

ALLIANCE MUNICIPAL AIRPORT, NE, United States (KAIA) 42-03N 102-48W 1196M
Aug 10, 2020 - 02:53 PM EDT / 2020.08.10 1853 UTC
Wind: from the E (100 degrees) at 10 MPH (9 KT) gusting to 22 MPH (19 KT) (direction variable):0
Visibility: 10 mile(s):0
Sky conditions: clear
Temperature: 79.0 F (26.1 C)
Dew Point: 48.9 F (9.4 C)
Relative Humidity: 34%
Pressure (altimeter): 30.11 in. Hg (1019 hPa)
ob: KAIA 101853Z AUTO 10009G19KT 080V140 10SM CLR 26/09 A3011 RMK AO2 SLP156 T02610094
cycle: 19

Station Type Date Time Source
KAIA TAF 2020/08/10 18:28 UTC NOAA

TAF KAIA 101720Z 1018/1118 11010G20KT P6SM SKC
FM102000 14012KT P6SM SKC
FM111100 17008KT P6SM BKN200

Example: see airport list